createdAt,value
2018-08-22T06:00:44.777Z,93.5
2018-08-22T06:01:04.934Z,93.2
2018-08-22T06:01:25.098Z,93.5
2018-08-22T06:01:45.372Z,93.3
2018-08-22T06:02:05.597Z,93.1
2018-08-22T06:02:25.856Z,93.8
2018-08-22T06:02:46.027Z,93.1
2018-08-22T06:03:06.230Z,93.2
2018-08-22T06:03:26.565Z,92.9
2018-08-22T06:03:46.755Z,93
2018-08-22T06:04:06.988Z,93.2
2018-08-22T06:04:27.198Z,93.1
2018-08-22T06:04:47.339Z,92.8
2018-08-22T06:05:07.620Z,93.1
2018-08-22T06:05:27.914Z,93.2
2018-08-22T06:05:48.102Z,93.2
2018-08-22T06:06:08.294Z,93.6
2018-08-22T06:06:28.530Z,93.1
2018-08-22T06:06:48.871Z,93
2018-08-22T06:07:09.143Z,93
2018-08-22T06:07:29.411Z,92.4
2018-08-22T06:07:49.646Z,92.3
2018-08-22T06:08:09.779Z,92.4
2018-08-22T06:08:29.930Z,91.9
2018-08-22T06:08:50.098Z,92.3
2018-08-22T06:09:10.321Z,91.9
2018-08-22T06:09:30.544Z,91.9
2018-08-22T06:09:50.716Z,92.3
2018-08-22T06:10:10.867Z,92.9
2018-08-22T06:10:31.045Z,92.5
2018-08-22T06:10:51.272Z,92.5
2018-08-22T06:11:11.467Z,91.7
2018-08-22T06:11:31.721Z,92.9
2018-08-22T06:11:51.941Z,92.6
2018-08-22T06:12:12.113Z,93
2018-08-22T06:12:32.382Z,92.8
2018-08-22T06:12:52.572Z,92.9
2018-08-22T06:13:12.761Z,93.3
2018-08-22T06:13:33.058Z,93.8
2018-08-22T06:13:53.230Z,93.5
2018-08-22T06:14:13.377Z,93.3
2018-08-22T06:14:33.559Z,92.9
2018-08-22T06:14:53.784Z,92.5
2018-08-22T06:15:14.065Z,92
2018-08-22T06:15:34.356Z,91.9
2018-08-22T06:15:54.633Z,91.9
2018-08-22T06:16:14.863Z,91.7
2018-08-22T06:16:35.061Z,92
2018-08-22T06:16:55.246Z,91.5
2018-08-22T06:17:15.404Z,91.1
2018-08-22T06:17:36.346Z,91.7
2018-08-22T06:17:56.474Z,91.3
2018-08-22T06:18:16.661Z,91.4
2018-08-22T06:18:36.797Z,91.7
2018-08-22T06:18:57.023Z,91.6
2018-08-22T06:19:17.256Z,91.2
2018-08-22T06:19:37.406Z,91.4
2018-08-22T06:19:57.681Z,91.5
2018-08-22T06:20:17.893Z,91.5
2018-08-22T06:20:38.112Z,91.7
2018-08-22T06:20:58.340Z,92.2
2018-08-22T06:21:18.558Z,92.1
2018-08-22T06:21:38.741Z,92.3
2018-08-22T06:21:59.015Z,91.4
2018-08-22T06:22:19.221Z,91.6
2018-08-22T06:22:39.447Z,91.4
2018-08-22T06:22:59.643Z,90.7
2018-08-22T06:23:19.833Z,90.8
2018-08-22T06:23:40.079Z,91
2018-08-22T06:24:00.258Z,90.9
2018-08-22T06:24:20.462Z,90.4
2018-08-22T06:24:40.831Z,90.5
2018-08-22T06:25:00.969Z,90.5
2018-08-22T06:25:21.130Z,90.4
2018-08-22T06:25:41.433Z,90.4
2018-08-22T06:26:01.521Z,90.9
2018-08-22T06:26:21.804Z,90.2
2018-08-22T06:26:41.993Z,90
2018-08-22T06:27:02.255Z,89.7
2018-08-22T06:27:22.518Z,90
2018-08-22T06:27:42.710Z,90
2018-08-22T06:28:02.877Z,90
2018-08-22T06:28:23.105Z,89.9
2018-08-22T06:28:43.371Z,90.4
2018-08-22T06:29:03.591Z,89.8
2018-08-22T06:29:23.804Z,89.8
2018-08-22T06:29:44.110Z,89.7
2018-08-22T06:30:04.338Z,90.3
2018-08-22T06:30:24.528Z,90.2
2018-08-22T06:30:44.772Z,90.2
2018-08-22T06:31:04.982Z,90.2
2018-08-22T06:31:25.156Z,90.1
2018-08-22T06:31:45.434Z,89.8
2018-08-22T06:32:05.665Z,89.7
2018-08-22T06:32:25.884Z,89.8
2018-08-22T06:32:46.102Z,89.7
2018-08-22T06:33:06.405Z,89.4
2018-08-22T06:33:26.653Z,89.9
2018-08-22T06:33:47.013Z,89.6
2018-08-22T06:34:07.239Z,89.9
2018-08-22T06:34:27.411Z,89.9
2018-08-22T06:34:47.573Z,89.3
2018-08-22T06:35:07.786Z,89.2
2018-08-22T06:35:28.017Z,88.8
2018-08-22T06:35:48.255Z,89.2
2018-08-22T06:36:08.478Z,88.5
2018-08-22T06:36:28.803Z,88.1
2018-08-22T06:36:48.959Z,88.1
2018-08-22T06:37:09.208Z,87.9
2018-08-22T06:37:29.407Z,88
2018-08-22T06:37:49.599Z,87.4
2018-08-22T06:38:09.826Z,87.7
2018-08-22T06:38:29.997Z,87.6
2018-08-22T06:38:50.280Z,88.4
2018-08-22T06:39:10.457Z,88.2
2018-08-22T06:39:30.661Z,87.9
2018-08-22T06:39:50.977Z,88.1
2018-08-22T06:40:11.211Z,88.3
2018-08-22T06:40:31.386Z,88.2
2018-08-22T06:40:51.619Z,88.2
2018-08-22T06:41:11.830Z,88.2
2018-08-22T06:41:32.056Z,88.2
2018-08-22T06:41:52.252Z,88.4
2018-08-22T06:42:12.462Z,87.2
2018-08-22T06:42:32.696Z,86.8
2018-08-22T06:42:52.906Z,87
2018-08-22T06:43:13.070Z,86.9
2018-08-22T06:43:33.256Z,86.9
2018-08-22T06:43:53.423Z,87.1
2018-08-22T06:44:13.755Z,87.4
2018-08-22T06:44:33.900Z,87.6
2018-08-22T06:44:54.106Z,87.5
2018-08-22T06:45:14.318Z,87.4
2018-08-22T06:45:34.516Z,88
2018-08-22T06:45:54.686Z,87.6
2018-08-22T06:46:14.865Z,87.5
2018-08-22T06:46:35.063Z,87.6
2018-08-22T06:46:55.315Z,87.4
2018-08-22T06:47:15.514Z,87.4
2018-08-22T06:47:35.733Z,87.2
2018-08-22T06:47:55.945Z,87
2018-08-22T06:48:16.255Z,87
2018-08-22T06:48:37.385Z,87
2018-08-22T06:48:57.608Z,86.4
2018-08-22T06:49:17.784Z,86.4
2018-08-22T06:49:37.942Z,85.9
2018-08-22T06:49:58.111Z,86.2
2018-08-22T06:50:18.411Z,86.6
2018-08-22T06:50:39.213Z,86.6
2018-08-22T06:50:59.432Z,87.1
2018-08-22T06:51:19.616Z,87.2
2018-08-22T06:51:39.817Z,86.6
2018-08-22T06:51:59.964Z,86.7
2018-08-22T06:52:21.516Z,86.7
2018-08-22T06:52:41.759Z,86.9
2018-08-22T06:53:01.961Z,87.2
2018-08-22T06:53:22.144Z,87
2018-08-22T06:53:42.333Z,86.5
2018-08-22T06:54:02.543Z,86.4
2018-08-22T06:54:22.732Z,86.3
2018-08-22T06:54:42.992Z,86
2018-08-22T06:55:03.206Z,85.2
2018-08-22T06:55:24.000Z,85.4
2018-08-22T06:55:44.227Z,85.6
2018-08-22T06:56:04.450Z,85.5
2018-08-22T06:56:24.717Z,85.5
2018-08-22T06:56:44.984Z,84.6
2018-08-22T06:57:05.175Z,84.9
2018-08-22T06:57:25.585Z,84.7
2018-08-22T06:57:45.893Z,85.4
2018-08-22T06:58:07.364Z,84.7
2018-08-22T06:58:28.954Z,84.5
2018-08-22T06:58:49.114Z,84.8
2018-08-22T06:59:09.272Z,84.7
2018-08-22T06:59:29.572Z,84.9
2018-08-22T06:59:49.837Z,84.9
2018-08-22T07:00:10.074Z,84.7
2018-08-22T07:00:30.329Z,84.7
2018-08-22T07:00:50.548Z,84.5
2018-08-22T07:01:11.492Z,84.3
2018-08-22T07:01:31.787Z,84.5
2018-08-22T07:01:51.969Z,84.3
2018-08-22T07:02:12.226Z,84.3
2018-08-22T07:02:32.462Z,84
2018-08-22T07:02:53.423Z,84.2
2018-08-22T07:03:13.670Z,84.3
2018-08-22T07:03:33.954Z,84.1
2018-08-22T07:03:54.225Z,84.6
2018-08-22T07:04:14.441Z,85.2
2018-08-22T07:04:34.766Z,85
2018-08-22T07:04:54.998Z,84.7
2018-08-22T07:05:15.243Z,84
2018-08-22T07:05:35.491Z,84.2
2018-08-22T07:05:55.757Z,84.5
2018-08-22T07:06:16.025Z,84.3
2018-08-22T07:06:36.918Z,84.2
2018-08-22T07:06:57.165Z,84.2
2018-08-22T07:07:17.432Z,84.7
2018-08-22T07:07:37.610Z,84.7
2018-08-22T07:07:59.762Z,85.2
2018-08-22T07:08:19.990Z,85
2018-08-22T07:08:40.178Z,84.2
2018-08-22T07:09:00.374Z,83.9
2018-08-22T07:09:22.079Z,83.3
2018-08-22T07:09:42.341Z,82.9
2018-08-22T07:10:02.552Z,82.8
2018-08-22T07:10:23.530Z,82.7
2018-08-22T07:10:43.775Z,82.7
2018-08-22T07:11:03.955Z,82.9
2018-08-22T07:11:24.158Z,83.8
2018-08-22T07:11:44.347Z,83.2
2018-08-22T07:12:04.555Z,81.7
2018-08-22T07:12:24.696Z,82.1
2018-08-22T07:12:44.918Z,82.2
2018-08-22T07:13:05.113Z,82.9
2018-08-22T07:13:25.284Z,82.6
2018-08-22T07:13:45.406Z,82.6
2018-08-22T07:14:05.643Z,83
2018-08-22T07:14:25.926Z,82.9
2018-08-22T07:14:47.092Z,83.2
2018-08-22T07:15:07.317Z,83.3
2018-08-22T07:15:27.562Z,83.1
2018-08-22T07:15:48.453Z,82.8
2018-08-22T07:16:08.629Z,82.9
2018-08-22T07:16:28.808Z,83.2
2018-08-22T07:16:49.017Z,83.2
2018-08-22T07:17:10.568Z,83.3
2018-08-22T07:17:30.770Z,83.5
2018-08-22T07:17:51.021Z,82.4
2018-08-22T07:18:11.312Z,82.1
2018-08-22T07:18:32.071Z,82
2018-08-22T07:18:52.241Z,81.4
2018-08-22T07:19:12.441Z,81.9
2018-08-22T07:19:32.650Z,82.6
2018-08-22T07:19:52.819Z,82.6
2018-08-22T07:20:13.065Z,82.8
2018-08-22T07:20:33.325Z,82.6
2018-08-22T07:20:53.627Z,81.9
2018-08-22T07:21:13.830Z,82.1
2018-08-22T07:21:34.106Z,81.5
2018-08-22T07:21:54.285Z,80.6
2018-08-22T07:22:14.484Z,80.9
2018-08-22T07:22:35.176Z,81.7
2018-08-22T07:22:55.384Z,81.9
2018-08-22T07:23:15.643Z,82.1
2018-08-22T07:23:36.053Z,81.7
2018-08-22T07:23:56.377Z,81.4
2018-08-22T07:24:16.626Z,81.1
2018-08-22T07:24:36.778Z,81
2018-08-22T07:24:57.481Z,81
2018-08-22T07:25:17.707Z,81.3
2018-08-22T07:25:37.895Z,79.6
2018-08-22T07:25:58.074Z,79.8
2018-08-22T07:26:18.265Z,80.3
2018-08-22T07:26:38.491Z,80.8
2018-08-22T07:26:58.692Z,80.8
2018-08-22T07:27:18.919Z,81.5
2018-08-22T07:27:39.159Z,81.5
2018-08-22T07:27:59.403Z,81.5
2018-08-22T07:28:19.558Z,81.2
2018-08-22T07:28:39.797Z,81.8
2018-08-22T07:28:59.992Z,81.9
2018-08-22T07:29:20.181Z,81.6
2018-08-22T07:29:40.465Z,81.6
2018-08-22T07:30:00.834Z,81.2
2018-08-22T07:30:21.157Z,81
2018-08-22T07:30:41.288Z,80.3
2018-08-22T07:31:01.468Z,80.2
2018-08-22T07:31:22.497Z,80.3
2018-08-22T07:31:42.714Z,80.9
2018-08-22T07:32:02.946Z,80.2
2018-08-22T07:32:23.787Z,80.4
2018-08-22T07:32:44.066Z,80.4
2018-08-22T07:33:04.451Z,80.6
2018-08-22T07:33:24.620Z,81.6
2018-08-22T07:33:44.890Z,81.6
2018-08-22T07:34:05.120Z,81.4
2018-08-22T07:34:25.415Z,81.2
2018-08-22T07:34:46.221Z,81.5
2018-08-22T07:35:06.492Z,81.3
2018-08-22T07:35:26.758Z,81.1
2018-08-22T07:35:47.029Z,78.8
2018-08-22T07:36:07.216Z,78.1
2018-08-22T07:36:27.421Z,78.9
2018-08-22T07:36:47.681Z,79
2018-08-22T07:37:07.917Z,79.2
2018-08-22T07:37:28.104Z,80.1
2018-08-22T07:37:49.191Z,80.2
2018-08-22T07:38:10.273Z,80.4
2018-08-22T07:38:30.481Z,79.9
2018-08-22T07:38:50.658Z,79.8
2018-08-22T07:39:10.913Z,79.5
2018-08-22T07:39:31.621Z,79.3
2018-08-22T07:39:51.782Z,79.5
2018-08-22T07:40:12.039Z,78.7
2018-08-22T07:40:32.212Z,78.2
2018-08-22T07:40:53.260Z,78.1
2018-08-22T07:41:13.568Z,78.9
2018-08-22T07:41:33.729Z,79.2
2018-08-22T07:41:54.668Z,79.3
2018-08-22T07:42:14.937Z,78
2018-08-22T07:42:36.092Z,78.3
2018-08-22T07:42:56.260Z,78.7
2018-08-22T07:43:16.497Z,78.1
2018-08-22T07:43:38.143Z,77.9
2018-08-22T07:43:58.433Z,78.1
2018-08-22T07:44:18.664Z,78.5
2018-08-22T07:44:38.931Z,78
2018-08-22T07:44:59.239Z,78.5
2018-08-22T07:45:19.488Z,78.3
2018-08-22T07:45:40.604Z,77.8
2018-08-22T07:46:00.782Z,76.3
2018-08-22T07:46:20.933Z,76.9
2018-08-22T07:46:41.238Z,77.1
2018-08-22T07:47:01.500Z,77
2018-08-22T07:47:21.721Z,76.7
2018-08-22T07:47:42.066Z,76.6
2018-08-22T07:48:02.343Z,77.1
2018-08-22T07:48:22.661Z,77.5
2018-08-22T07:48:43.017Z,77.9
2018-08-22T07:49:04.158Z,77.4
2018-08-22T07:49:24.419Z,77.1
2018-08-22T07:49:44.659Z,76.9
2018-08-22T07:50:04.942Z,76.6
2018-08-22T07:50:25.216Z,77.2
2018-08-22T07:50:45.425Z,77
2018-08-22T07:51:05.686Z,76.9
2018-08-22T07:51:25.977Z,77.4
2018-08-22T07:51:46.318Z,76.9
2018-08-22T07:52:06.619Z,76.7
2018-08-22T07:52:26.827Z,77.6
2018-08-22T07:52:47.023Z,78
2018-08-22T07:53:07.257Z,77.6
2018-08-22T07:53:27.665Z,76.9
2018-08-22T07:53:47.771Z,76.2
2018-08-22T07:54:07.984Z,76.3
2018-08-22T07:54:28.212Z,76.9
2018-08-22T07:54:48.439Z,76.6
2018-08-22T07:55:09.701Z,76.2
2018-08-22T07:55:30.301Z,76.1
2018-08-22T07:55:50.519Z,75.6
2018-08-22T07:56:10.815Z,75.7
2018-08-22T07:56:31.061Z,75.5
2018-08-22T07:56:51.312Z,75.4
2018-08-22T07:57:11.565Z,75.2
2018-08-22T07:57:31.787Z,74.9
2018-08-22T07:57:52.057Z,75.5
2018-08-22T07:58:13.254Z,75.8
2018-08-22T07:58:33.492Z,76.1
2018-08-22T07:58:53.800Z,75.4
2018-08-22T07:59:14.141Z,75
2018-08-22T07:59:34.433Z,74
2018-08-22T07:59:54.668Z,74
2018-08-22T08:00:14.977Z,74.2
2018-08-22T08:00:35.154Z,74.2
2018-08-22T08:00:55.353Z,73.3
2018-08-22T08:01:15.518Z,73.9
2018-08-22T08:01:37.288Z,74.3
2018-08-22T08:01:58.504Z,74.2
2018-08-22T08:02:18.525Z,75
2018-08-22T08:02:38.741Z,74.8
2018-08-22T08:02:58.969Z,75.3
2018-08-22T08:03:20.165Z,75.2
2018-08-22T08:03:40.561Z,75.4
2018-08-22T08:04:01.998Z,75.2
2018-08-22T08:04:22.213Z,75.7
2018-08-22T08:04:42.379Z,75.1
2018-08-22T08:05:02.564Z,75.3
2018-08-22T08:05:22.811Z,74.8
2018-08-22T08:05:43.067Z,75.2
2018-08-22T08:06:03.295Z,74.8
2018-08-22T08:06:23.503Z,74.4
2018-08-22T08:06:44.397Z,72.9
2018-08-22T08:07:04.551Z,72.4
2018-08-22T08:07:24.775Z,72.2
2018-08-22T08:07:44.967Z,72.8
2018-08-22T08:08:05.186Z,72.2
2018-08-22T08:08:25.385Z,72.5
2018-08-22T08:08:45.736Z,72.6
2018-08-22T08:09:05.967Z,73.1
2018-08-22T08:09:26.929Z,73.3
2018-08-22T08:09:47.117Z,73.7
2018-08-22T08:10:07.373Z,73.2
2018-08-22T08:10:27.676Z,72.9
2018-08-22T08:10:48.162Z,72.7
2018-08-22T08:11:08.517Z,72.4
2018-08-22T08:11:28.729Z,72.8
2018-08-22T08:11:49.039Z,73.6
2018-08-22T08:12:09.332Z,73.8
2018-08-22T08:12:29.569Z,73.9
2018-08-22T08:12:49.797Z,74.3
2018-08-22T08:13:10.012Z,73.5
2018-08-22T08:13:30.894Z,73.5
2018-08-22T08:13:51.155Z,73.8
2018-08-22T08:14:11.613Z,72.7
2018-08-22T08:14:32.099Z,72.6
2018-08-22T08:14:52.244Z,72.6
2018-08-22T08:15:12.579Z,72.6
2018-08-22T08:15:32.790Z,72.2
2018-08-22T08:15:52.952Z,72.4
2018-08-22T08:16:13.158Z,72.8
2018-08-22T08:16:33.478Z,72.8
2018-08-22T08:16:53.735Z,73.6
2018-08-22T08:17:14.123Z,73.4
2018-08-22T08:17:34.320Z,73.3
2018-08-22T08:17:55.254Z,72.5
2018-08-22T08:18:15.504Z,72.8
2018-08-22T08:18:35.713Z,72.7
2018-08-22T08:18:55.955Z,73.1
2018-08-22T08:19:16.159Z,72.8
2018-08-22T08:19:36.321Z,72.8
2018-08-22T08:19:56.479Z,72.7
2018-08-22T08:20:17.276Z,73.2
2018-08-22T08:20:38.205Z,73.5
2018-08-22T08:20:58.423Z,73.4
2018-08-22T08:21:18.634Z,73.6
2018-08-22T08:21:39.412Z,73.9
2018-08-22T08:21:59.636Z,73.2
2018-08-22T08:22:19.822Z,73.3
2018-08-22T08:22:40.050Z,73.4
2018-08-22T08:23:00.241Z,72.6
2018-08-22T08:23:20.544Z,72.5
2018-08-22T08:23:41.258Z,71.9
2018-08-22T08:24:01.578Z,71.8
2018-08-22T08:24:21.825Z,70.9
2018-08-22T08:24:42.161Z,70.7
2018-08-22T08:25:03.228Z,70
2018-08-22T08:25:23.427Z,69.1
2018-08-22T08:25:44.953Z,69.3
2018-08-22T08:26:05.357Z,69.1
2018-08-22T08:26:25.613Z,69.7
2018-08-22T08:26:47.390Z,70.3
2018-08-22T08:27:07.645Z,70.6
2018-08-22T08:27:28.027Z,70.9
2018-08-22T08:27:48.398Z,71.6
2018-08-22T08:28:08.757Z,72.7
2018-08-22T08:28:29.016Z,72.8
2018-08-22T08:28:49.195Z,72.3
2018-08-22T08:29:09.388Z,72.1
2018-08-22T08:29:29.609Z,72
2018-08-22T08:29:50.499Z,72
2018-08-22T08:30:10.666Z,72.1
2018-08-22T08:30:30.997Z,72
2018-08-22T08:30:51.231Z,71.3
2018-08-22T08:31:11.548Z,70.5
2018-08-22T08:31:31.945Z,70.6
2018-08-22T08:31:52.300Z,70.3
2018-08-22T08:32:12.506Z,70
2018-08-22T08:32:32.870Z,70.7
2018-08-22T08:32:53.239Z,70.2
2018-08-22T08:33:13.617Z,69.5
2018-08-22T08:33:33.870Z,69.5
2018-08-22T08:33:54.888Z,69.8
2018-08-22T08:34:15.126Z,69.4
2018-08-22T08:34:35.363Z,69.5
2018-08-22T08:34:55.612Z,70.1
2018-08-22T08:35:15.966Z,69.6
2018-08-22T08:35:36.215Z,69.4
2018-08-22T08:35:56.572Z,70.1
2018-08-22T08:36:17.001Z,70.5
2018-08-22T08:36:37.282Z,70.6
2018-08-22T08:36:59.041Z,70
2018-08-22T08:37:19.320Z,68.6
2018-08-22T08:37:40.415Z,68.3
2018-08-22T08:38:00.722Z,68.4
2018-08-22T08:38:20.990Z,68.4
2018-08-22T08:38:41.293Z,68.7
2018-08-22T08:39:02.434Z,69
2018-08-22T08:39:22.824Z,68.9
2018-08-22T08:39:42.989Z,68.7
2018-08-22T08:40:03.244Z,69.6
2018-08-22T08:40:23.463Z,68.9
2018-08-22T08:40:44.531Z,68.9
2018-08-22T08:41:04.830Z,68.8
2018-08-22T08:41:25.049Z,68.8
2018-08-22T08:41:45.340Z,68.6
2018-08-22T08:42:05.474Z,68.7
2018-08-22T08:42:25.684Z,68.5
2018-08-22T08:42:46.566Z,69.3
2018-08-22T08:43:06.752Z,68.8
2018-08-22T08:43:27.142Z,68
2018-08-22T08:43:47.249Z,68.9
2018-08-22T08:44:07.485Z,68.6
2018-08-22T08:44:27.689Z,68.7
2018-08-22T08:44:47.891Z,68.7
2018-08-22T08:45:08.174Z,68.6
2018-08-22T08:45:28.468Z,68.9
2018-08-22T08:45:48.728Z,68.5
2018-08-22T08:46:09.007Z,67.2
2018-08-22T08:46:29.333Z,66.4
2018-08-22T08:46:49.601Z,65.9
2018-08-22T08:47:09.885Z,66.3
2018-08-22T08:47:30.263Z,66.3
2018-08-22T08:47:50.510Z,66.6
2018-08-22T08:48:11.473Z,66.5
2018-08-22T08:48:31.698Z,65.7
2018-08-22T08:48:51.944Z,65.2
2018-08-22T08:49:12.165Z,65.1
2018-08-22T08:49:32.572Z,65.5
2018-08-22T08:49:52.803Z,65.3
2018-08-22T08:50:12.971Z,65.1
2018-08-22T08:50:34.070Z,64.8
2018-08-22T08:50:54.252Z,65.2
2018-08-22T08:51:14.499Z,66.1
2018-08-22T08:51:34.706Z,65.3
2018-08-22T08:51:54.923Z,65.4
2018-08-22T08:52:15.128Z,65.3
2018-08-22T08:52:35.390Z,65.4
2018-08-22T08:52:55.721Z,66.2
2018-08-22T08:53:15.966Z,66.4
2018-08-22T08:53:36.169Z,66
2018-08-22T08:53:56.604Z,66.4
2018-08-22T08:54:16.797Z,66.4
2018-08-22T08:54:37.155Z,65.5
2018-08-22T08:54:57.851Z,65
2018-08-22T08:55:18.114Z,64.8
2018-08-22T08:55:38.266Z,66
2018-08-22T08:55:58.539Z,65.4
2018-08-22T08:56:18.793Z,65.9
2018-08-22T08:56:39.051Z,66.6
2018-08-22T08:56:59.343Z,66.8
2018-08-22T08:57:19.875Z,66.1
2018-08-22T08:57:40.100Z,65.8
2018-08-22T08:58:00.301Z,64.2
2018-08-22T08:58:20.557Z,64.5
2018-08-22T08:58:40.792Z,65.5
2018-08-22T08:59:00.987Z,64.7
2018-08-22T08:59:21.305Z,65
2018-08-22T08:59:42.522Z,63.4
2018-08-22T09:00:02.887Z,63.3
2018-08-22T09:00:23.108Z,63.3
2018-08-22T09:00:43.424Z,64
2018-08-22T09:01:03.694Z,64.7
2018-08-22T09:01:23.972Z,65.2
2018-08-22T09:01:44.265Z,65
2018-08-22T09:02:05.394Z,64.3
2018-08-22T09:02:25.611Z,64.2
2018-08-22T09:02:45.913Z,63.8
2018-08-22T09:03:06.157Z,63.8
2018-08-22T09:03:26.401Z,64.3
2018-08-22T09:03:46.761Z,65.3
2018-08-22T09:04:07.271Z,65.3
2018-08-22T09:04:27.607Z,63.1
2018-08-22T09:04:47.826Z,63.7
2018-08-22T09:05:08.136Z,63.8
2018-08-22T09:05:28.379Z,63.9
2018-08-22T09:05:48.611Z,65
2018-08-22T09:06:08.802Z,65.9
2018-08-22T09:06:29.088Z,66.5
2018-08-22T09:06:49.381Z,66.5
2018-08-22T09:07:09.646Z,66
2018-08-22T09:07:29.964Z,66.7
2018-08-22T09:07:50.399Z,66.7
2018-08-22T09:08:10.643Z,66.8
2018-08-22T09:08:30.909Z,66.3
2018-08-22T09:08:51.104Z,64.5
2018-08-22T09:09:11.380Z,62.9
2018-08-22T09:09:31.782Z,62.7
2018-08-22T09:09:52.063Z,62.6
2018-08-22T09:10:12.421Z,62.5
2018-08-22T09:10:32.783Z,63.9
2018-08-22T09:10:53.078Z,63.8
2018-08-22T09:11:13.495Z,63.9
2018-08-22T09:11:33.810Z,62.7
2018-08-22T09:11:54.082Z,63.5
2018-08-22T09:12:15.109Z,64.6
2018-08-22T09:12:35.295Z,63.9
2018-08-22T09:12:55.487Z,63.2
2018-08-22T09:13:15.705Z,62.5
2018-08-22T09:13:35.907Z,61.7
2018-08-22T09:13:56.143Z,61
2018-08-22T09:14:16.391Z,61.8
2018-08-22T09:14:36.734Z,62.4
2018-08-22T09:14:58.125Z,62.2
2018-08-22T09:15:18.379Z,62.9
2018-08-22T09:15:38.680Z,62.9
2018-08-22T09:15:59.011Z,63
2018-08-22T09:16:19.199Z,62.8
2018-08-22T09:16:39.464Z,62.2
2018-08-22T09:16:59.676Z,62.5
2018-08-22T09:17:20.025Z,62
2018-08-22T09:17:40.263Z,62.3
2018-08-22T09:18:00.515Z,62.5
2018-08-22T09:18:21.319Z,63
2018-08-22T09:18:41.553Z,62.6
2018-08-22T09:19:01.798Z,62.6
2018-08-22T09:19:22.067Z,62.4
2018-08-22T09:19:42.300Z,62.6
2018-08-22T09:20:02.522Z,62.9
2018-08-22T09:20:22.699Z,63.4
2018-08-22T09:20:42.909Z,63.4
2018-08-22T09:21:03.253Z,63
2018-08-22T09:21:24.558Z,62.4
2018-08-22T09:21:44.734Z,61.9
2018-08-22T09:22:05.042Z,62.2
2018-08-22T09:22:25.300Z,61
2018-08-22T09:22:45.531Z,61.6
2018-08-22T09:23:05.809Z,61.8
2018-08-22T09:23:26.167Z,61
2018-08-22T09:23:46.388Z,60.4
2018-08-22T09:24:06.620Z,61
2018-08-22T09:24:26.984Z,61.6
2018-08-22T09:24:47.143Z,61.4
2018-08-22T09:25:07.405Z,61.4
2018-08-22T09:25:27.654Z,61.2
2018-08-22T09:25:47.944Z,61.3
2018-08-22T09:26:08.199Z,62.1
2018-08-22T09:26:28.430Z,62.7
2018-08-22T09:26:48.697Z,62.4
2018-08-22T09:27:08.980Z,62.8
2018-08-22T09:27:29.341Z,62.4
2018-08-22T09:27:49.644Z,61.6
2018-08-22T09:28:09.921Z,61.4
2018-08-22T09:28:30.924Z,60.3
2018-08-22T09:28:51.225Z,61
2018-08-22T09:29:11.521Z,62.8
2018-08-22T09:29:31.850Z,62.5
2018-08-22T09:29:52.106Z,62.3
2018-08-22T09:30:12.350Z,62.4
2018-08-22T09:30:32.618Z,61.3
2018-08-22T09:30:52.883Z,61.1
2018-08-22T09:31:13.148Z,60.6
2018-08-22T09:31:33.383Z,60.6
2018-08-22T09:31:53.623Z,60.6
2018-08-22T09:32:13.930Z,60.5
2018-08-22T09:32:37.092Z,60.7
2018-08-22T09:32:57.366Z,60.5
2018-08-22T09:33:17.637Z,60.4
2018-08-22T09:33:37.868Z,59.6
2018-08-22T09:33:58.141Z,59.7
2018-08-22T09:34:18.412Z,59.3
2018-08-22T09:34:38.680Z,58.8
2018-08-22T09:34:58.802Z,59.4
2018-08-22T09:35:19.033Z,58.9
2018-08-22T09:35:39.357Z,59
2018-08-22T09:35:59.446Z,58.8
2018-08-22T09:36:19.649Z,58.8
2018-08-22T09:36:39.929Z,58.6
2018-08-22T09:37:00.170Z,58
2018-08-22T09:37:20.476Z,57.2
2018-08-22T09:37:40.751Z,57.6
2018-08-22T09:38:01.453Z,57.9
2018-08-22T09:38:21.757Z,58.9
2018-08-22T09:38:43.419Z,58.8
2018-08-22T09:39:03.722Z,58.6
2018-08-22T09:39:24.039Z,58.6
2018-08-22T09:39:44.284Z,58.7
2018-08-22T09:40:05.152Z,58.9
2018-08-22T09:40:25.450Z,58.9
2018-08-22T09:40:45.605Z,58.7
2018-08-22T09:41:05.850Z,58.8
2018-08-22T09:41:27.291Z,58.6
2018-08-22T09:41:47.520Z,58.7
2018-08-22T09:42:07.875Z,58.9
2018-08-22T09:42:28.094Z,58.5
2018-08-22T09:42:49.265Z,58.5
2018-08-22T09:43:09.505Z,58.6
2018-08-22T09:43:29.819Z,58.6
2018-08-22T09:43:50.047Z,59.5
2018-08-22T09:44:10.276Z,59.8
2018-08-22T09:44:30.500Z,59
2018-08-22T09:44:50.700Z,58.4
2018-08-22T09:45:10.962Z,57.8
2018-08-22T09:45:31.155Z,57.9
2018-08-22T09:45:51.379Z,57.3
2018-08-22T09:46:12.332Z,57.4
2018-08-22T09:46:32.635Z,57.7
2018-08-22T09:46:52.895Z,57.8
2018-08-22T09:47:13.029Z,58.3
2018-08-22T09:47:33.258Z,58.5
2018-08-22T09:47:53.567Z,57.7
2018-08-22T09:48:13.815Z,56.4
2018-08-22T09:48:34.714Z,57
2018-08-22T09:48:54.998Z,57.3
2018-08-22T09:49:15.224Z,57.3
2018-08-22T09:49:35.481Z,57.8
2018-08-22T09:49:55.772Z,57.8
2018-08-22T09:50:15.992Z,56.6
2018-08-22T09:50:36.691Z,57.1
2018-08-22T09:50:57.215Z,57.4
2018-08-22T09:51:17.476Z,57.6
2018-08-22T09:51:37.765Z,56.7
2018-08-22T09:51:58.043Z,55.8
2018-08-22T09:52:18.341Z,56
2018-08-22T09:52:39.043Z,56.3
2018-08-22T09:52:59.864Z,57
2018-08-22T09:53:20.079Z,57
2018-08-22T09:53:40.361Z,56.6
2018-08-22T09:54:00.514Z,57.2
2018-08-22T09:54:20.703Z,57.9
2018-08-22T09:54:40.987Z,57.3
2018-08-22T09:55:01.184Z,57.8
2018-08-22T09:55:21.438Z,57
2018-08-22T09:55:41.630Z,57
2018-08-22T09:56:01.831Z,57.2
2018-08-22T09:56:22.067Z,57.2
2018-08-22T09:56:42.355Z,57.7
2018-08-22T09:57:02.548Z,57.5
2018-08-22T09:57:22.743Z,57.3
2018-08-22T09:57:43.008Z,57.3
2018-08-22T09:58:03.276Z,57.1
2018-08-22T09:58:23.571Z,56.3
2018-08-22T09:58:43.768Z,56.2
2018-08-22T09:59:03.996Z,56.3
2018-08-22T09:59:24.344Z,57
2018-08-22T09:59:44.614Z,56.8
2018-08-22T10:00:04.848Z,56.7
2018-08-22T10:00:25.204Z,56.6
2018-08-22T10:00:45.632Z,57.2
2018-08-22T10:01:05.910Z,57.1
2018-08-22T10:01:26.780Z,57.1
2018-08-22T10:01:47.033Z,57
2018-08-22T10:02:07.271Z,57.7
2018-08-22T10:02:29.274Z,57.6
2018-08-22T10:02:49.551Z,57.4
2018-08-22T10:03:09.774Z,57.8
2018-08-22T10:03:29.923Z,57.6
2018-08-22T10:03:50.087Z,57.2
2018-08-22T10:04:10.385Z,56.9
2018-08-22T10:04:31.214Z,56.7
2018-08-22T10:04:51.447Z,57.3
2018-08-22T10:05:12.165Z,57.2
2018-08-22T10:05:32.410Z,57.3
2018-08-22T10:05:52.655Z,57.5
2018-08-22T10:06:13.005Z,57.6
2018-08-22T10:06:33.641Z,57.7
2018-08-22T10:06:54.636Z,57.8
2018-08-22T10:07:14.664Z,57.1
2018-08-22T10:07:35.045Z,57.2
2018-08-22T10:07:56.754Z,56.5
2018-08-22T10:08:16.993Z,57
2018-08-22T10:08:37.318Z,56.9
2018-08-22T10:08:57.454Z,57
2018-08-22T10:09:17.634Z,56.7
2018-08-22T10:09:37.866Z,57.1
2018-08-22T10:09:58.138Z,57.2
2018-08-22T10:10:18.377Z,56.6
2018-08-22T10:10:38.624Z,56.8
2018-08-22T10:10:58.874Z,56.6
2018-08-22T10:11:19.057Z,56.4
2018-08-22T10:11:39.217Z,56.5
2018-08-22T10:11:59.405Z,56
2018-08-22T10:12:19.541Z,55.2
2018-08-22T10:12:39.708Z,55.7
2018-08-22T10:13:00.475Z,55.5
2018-08-22T10:13:20.752Z,55.4
2018-08-22T10:13:40.951Z,55.8
2018-08-22T10:14:01.152Z,56.2
2018-08-22T10:14:21.437Z,55.3
2018-08-22T10:14:41.682Z,55.8
2018-08-22T10:15:01.869Z,55.8
2018-08-22T10:15:22.144Z,55.7
2018-08-22T10:15:42.346Z,55.8
2018-08-22T10:16:02.479Z,55
2018-08-22T10:16:22.655Z,55.7
2018-08-22T10:16:42.796Z,55.1
2018-08-22T10:17:03.031Z,55.8
2018-08-22T10:17:23.289Z,55.7
2018-08-22T10:17:43.664Z,55.4
2018-08-22T10:18:03.854Z,55.1
2018-08-22T10:18:24.970Z,53.8
2018-08-22T10:18:45.171Z,54.9
2018-08-22T10:19:05.521Z,54.7
2018-08-22T10:19:25.725Z,54.8
2018-08-22T10:19:45.989Z,55.1
2018-08-22T10:20:06.147Z,55.3
2018-08-22T10:20:26.674Z,55.3
2018-08-22T10:20:47.009Z,54
2018-08-22T10:21:07.273Z,53.8
2018-08-22T10:21:27.622Z,55.6
2018-08-22T10:21:47.842Z,55.9
2018-08-22T10:22:08.125Z,55.3
2018-08-22T10:22:28.345Z,54.5
2018-08-22T10:22:48.523Z,54.6
2018-08-22T10:23:08.752Z,54.6
2018-08-22T10:23:29.146Z,55.3
2018-08-22T10:23:49.393Z,55.9
2018-08-22T10:24:09.697Z,56
2018-08-22T10:24:29.898Z,56
2018-08-22T10:24:50.369Z,54.8
2018-08-22T10:25:11.484Z,53.9
2018-08-22T10:25:31.792Z,53.2
2018-08-22T10:25:52.035Z,53
2018-08-22T10:38:24.964Z,54.8
2018-08-22T10:38:45.212Z,55
2018-08-22T10:39:05.435Z,54.9
2018-08-22T10:39:25.772Z,55
2018-08-22T10:39:45.990Z,53.3
2018-08-22T10:40:06.293Z,53.4
2018-08-22T10:40:26.733Z,53.2
2018-08-22T10:40:47.072Z,53.6
2018-08-22T10:41:07.296Z,53.8
2018-08-22T10:41:27.508Z,53.9
2018-08-22T10:41:47.819Z,54.9
2018-08-22T10:42:08.068Z,54.5
2018-08-22T10:42:28.327Z,54.5
2018-08-22T10:42:48.591Z,54.9
2018-08-22T10:43:08.767Z,54.9
2018-08-22T10:43:29.018Z,55.1
2018-08-22T10:43:49.260Z,55
2018-08-22T10:44:09.530Z,55.7
2018-08-22T10:44:29.811Z,55.7
2018-08-22T10:44:50.161Z,55.3
2018-08-22T10:45:10.473Z,54.9
2018-08-22T10:45:30.784Z,54.9